sensor_id;sensor_type;location;lat;lon;timestamp;P1;durP1;ratioP1;P2;durP2;ratioP2
10904;SDS011;5505;51.450;9.254;2022-07-01T00:00:58;15.07;;;13.60;;
10904;SDS011;5505;51.450;9.254;2022-07-01T00:03:45;13.80;;;12.60;;
10904;SDS011;5505;51.450;9.254;2022-07-01T00:06:36;12.10;;;11.10;;
10904;SDS011;5505;51.450;9.254;2022-07-01T00:09:23;10.73;;;9.83;;
10904;SDS011;5505;51.450;9.254;2022-07-01T00:12:10;10.87;;;9.90;;
10904;SDS011;5505;51.450;9.254;2022-07-01T00:14:57;10.00;;;9.10;;
10904;SDS011;5505;51.450;9.254;2022-07-01T00:17:45;10.07;;;8.77;;
10904;SDS011;5505;51.450;9.254;2022-07-01T00:20:32;9.47;;;8.67;;
10904;SDS011;5505;51.450;9.254;2022-07-01T00:23:20;9.10;;;8.40;;
10904;SDS011;5505;51.450;9.254;2022-07-01T00:26:07;8.10;;;7.50;;
10904;SDS011;5505;51.450;9.254;2022-07-01T00:28:54;7.87;;;7.27;;
10904;SDS011;5505;51.450;9.254;2022-07-01T00:31:41;8.83;;;6.67;;
10904;SDS011;5505;51.450;9.254;2022-07-01T00:34:27;6.63;;;6.13;;
10904;SDS011;5505;51.450;9.254;2022-07-01T00:37:14;6.87;;;6.27;;
10904;SDS011;5505;51.450;9.254;2022-07-01T00:40:03;6.70;;;6.20;;
10904;SDS011;5505;51.450;9.254;2022-07-01T00:42:50;6.40;;;5.90;;
10904;SDS011;5505;51.450;9.254;2022-07-01T00:45:42;6.90;;;6.30;;
10904;SDS011;5505;51.450;9.254;2022-07-01T00:48:30;6.60;;;6.00;;
10904;SDS011;5505;51.450;9.254;2022-07-01T00:51:18;7.03;;;6.37;;
10904;SDS011;5505;51.450;9.254;2022-07-01T00:54:05;6.93;;;6.43;;
10904;SDS011;5505;51.450;9.254;2022-07-01T00:56:54;7.90;;;7.10;;
10904;SDS011;5505;51.450;9.254;2022-07-01T00:59:42;8.00;;;7.20;;
10904;SDS011;5505;51.450;9.254;2022-07-01T01:02:30;7.43;;;6.83;;
10904;SDS011;5505;51.450;9.254;2022-07-01T01:05:36;7.97;;;7.37;;
10904;SDS011;5505;51.450;9.254;2022-07-01T01:08:23;8.23;;;7.43;;
10904;SDS011;5505;51.450;9.254;2022-07-01T01:11:10;8.40;;;7.80;;
10904;SDS011;5505;51.450;9.254;2022-07-01T01:14:00;8.60;;;7.93;;
10904;SDS011;5505;51.450;9.254;2022-07-01T01:16:46;9.10;;;8.30;;
10904;SDS011;5505;51.450;9.254;2022-07-01T01:19:33;9.07;;;8.37;;
10904;SDS011;5505;51.450;9.254;2022-07-01T01:22:21;9.67;;;8.87;;
10904;SDS011;5505;51.450;9.254;2022-07-01T01:25:08;10.87;;;9.87;;
10904;SDS011;5505;51.450;9.254;2022-07-01T01:27:55;10.50;;;9.60;;
10904;SDS011;5505;51.450;9.254;2022-07-01T01:30:42;11.17;;;10.20;;
10904;SDS011;5505;51.450;9.254;2022-07-01T01:33:29;10.77;;;9.80;;
10904;SDS011;5505;51.450;9.254;2022-07-01T01:36:15;11.13;;;10.13;;
10904;SDS011;5505;51.450;9.254;2022-07-01T01:39:03;10.47;;;9.47;;
10904;SDS011;5505;51.450;9.254;2022-07-01T01:41:53;9.27;;;8.47;;
10904;SDS011;5505;51.450;9.254;2022-07-01T01:44:40;9.47;;;8.37;;
10904;SDS011;5505;51.450;9.254;2022-07-01T01:47:27;8.30;;;7.33;;
10904;SDS011;5505;51.450;9.254;2022-07-01T01:50:14;7.87;;;7.17;;
10904;SDS011;5505;51.450;9.254;2022-07-01T01:53:01;8.80;;;8.00;;
10904;SDS011;5505;51.450;9.254;2022-07-01T01:55:49;8.10;;;7.40;;
10904;SDS011;5505;51.450;9.254;2022-07-01T01:58:36;7.93;;;7.23;;
10904;SDS011;5505;51.450;9.254;2022-07-01T02:01:27;7.93;;;7.23;;
10904;SDS011;5505;51.450;9.254;2022-07-01T02:04:14;7.17;;;6.67;;
10904;SDS011;5505;51.450;9.254;2022-07-01T02:07:01;6.70;;;6.20;;
10904;SDS011;5505;51.450;9.254;2022-07-01T02:09:49;6.40;;;5.80;;
10904;SDS011;5505;51.450;9.254;2022-07-01T02:12:38;6.77;;;4.70;;
10904;SDS011;5505;51.450;9.254;2022-07-01T02:15:24;4.80;;;4.40;;
10904;SDS011;5505;51.450;9.254;2022-07-01T02:18:11;3.93;;;3.63;;
10904;SDS011;5505;51.450;9.254;2022-07-01T02:20:58;4.17;;;3.87;;
10904;SDS011;5505;51.450;9.254;2022-07-01T02:23:45;4.23;;;3.83;;
10904;SDS011;5505;51.450;9.254;2022-07-01T02:26:32;5.20;;;4.70;;
10904;SDS011;5505;51.450;9.254;2022-07-01T02:29:20;6.10;;;5.50;;
10904;SDS011;5505;51.450;9.254;2022-07-01T02:32:07;6.00;;;5.50;;
10904;SDS011;5505;51.450;9.254;2022-07-01T02:34:53;6.47;;;5.90;;
10904;SDS011;5505;51.450;9.254;2022-07-01T02:37:40;6.97;;;6.27;;
10904;SDS011;5505;51.450;9.254;2022-07-01T02:40:34;7.20;;;6.60;;
10904;SDS011;5505;51.450;9.254;2022-07-01T02:43:22;7.27;;;6.67;;
10904;SDS011;5505;51.450;9.254;2022-07-01T02:46:11;7.90;;;7.20;;
10904;SDS011;5505;51.450;9.254;2022-07-01T02:48:59;8.23;;;7.53;;
10904;SDS011;5505;51.450;9.254;2022-07-01T02:51:46;8.80;;;8.00;;
10904;SDS011;5505;51.450;9.254;2022-07-01T02:54:32;7.97;;;7.37;;
10904;SDS011;5505;51.450;9.254;2022-07-01T02:57:19;7.20;;;6.60;;
10904;SDS011;5505;51.450;9.254;2022-07-01T03:00:07;6.73;;;6.13;;
10904;SDS011;5505;51.450;9.254;2022-07-01T03:02:56;7.50;;;6.80;;
10904;SDS011;5505;51.450;9.254;2022-07-01T03:05:43;8.77;;;7.80;;
10904;SDS011;5505;51.450;9.254;2022-07-01T03:08:32;9.33;;;8.53;;
10904;SDS011;5505;51.450;9.254;2022-07-01T03:11:19;10.60;;;9.70;;
10904;SDS011;5505;51.450;9.254;2022-07-01T03:14:05;10.13;;;9.13;;
10904;SDS011;5505;51.450;9.254;2022-07-01T03:16:52;11.53;;;9.73;;
10904;SDS011;5505;51.450;9.254;2022-07-01T03:19:40;12.43;;;9.87;;
10904;SDS011;5505;51.450;9.254;2022-07-01T03:22:28;9.60;;;8.60;;
10904;SDS011;5505;51.450;9.254;2022-07-01T03:25:15;9.83;;;8.50;;
10904;SDS011;5505;51.450;9.254;2022-07-01T03:28:02;9.40;;;8.40;;
10904;SDS011;5505;51.450;9.254;2022-07-01T03:30:49;10.50;;;7.77;;
10904;SDS011;5505;51.450;9.254;2022-07-01T03:33:36;11.63;;;8.60;;
10904;SDS011;5505;51.450;9.254;2022-07-01T03:36:24;10.13;;;7.87;;
10904;SDS011;5505;51.450;9.254;2022-07-01T03:39:11;8.97;;;7.87;;
10904;SDS011;5505;51.450;9.254;2022-07-01T03:41:58;10.80;;;7.97;;
10904;SDS011;5505;51.450;9.254;2022-07-01T03:44:45;9.60;;;7.77;;
10904;SDS011;5505;51.450;9.254;2022-07-01T03:47:32;9.37;;;7.63;;
10904;SDS011;5505;51.450;9.254;2022-07-01T03:50:20;9.33;;;7.37;;
10904;SDS011;5505;51.450;9.254;2022-07-01T03:53:09;11.57;;;7.80;;
10904;SDS011;5505;51.450;9.254;2022-07-01T03:56:13;10.87;;;7.53;;
10904;SDS011;5505;51.450;9.254;2022-07-01T03:59:00;11.07;;;8.00;;
10904;SDS011;5505;51.450;9.254;2022-07-01T04:01:47;9.27;;;7.27;;
10904;SDS011;5505;51.450;9.254;2022-07-01T04:04:34;10.47;;;7.30;;
10904;SDS011;5505;51.450;9.254;2022-07-01T04:07:21;11.33;;;8.20;;
10904;SDS011;5505;51.450;9.254;2022-07-01T04:10:10;9.07;;;7.37;;
10904;SDS011;5505;51.450;9.254;2022-07-01T04:12:58;8.67;;;6.90;;
10904;SDS011;5505;51.450;9.254;2022-07-01T04:15:47;9.90;;;7.20;;
10904;SDS011;5505;51.450;9.254;2022-07-01T04:18:35;8.93;;;6.87;;
10904;SDS011;5505;51.450;9.254;2022-07-01T04:21:21;8.23;;;6.63;;
10904;SDS011;5505;51.450;9.254;2022-07-01T04:24:26;9.07;;;6.77;;
10904;SDS011;5505;51.450;9.254;2022-07-01T04:27:15;7.47;;;5.60;;
10904;SDS011;5505;51.450;9.254;2022-07-01T04:30:02;8.10;;;6.53;;
10904;SDS011;5505;51.450;9.254;2022-07-01T04:32:49;7.13;;;5.50;;
10904;SDS011;5505;51.450;9.254;2022-07-01T04:35:36;8.07;;;5.77;;
10904;SDS011;5505;51.450;9.254;2022-07-01T04:38:23;6.93;;;5.33;;
10904;SDS011;5505;51.450;9.254;2022-07-01T04:41:10;7.30;;;5.37;;
10904;SDS011;5505;51.450;9.254;2022-07-01T04:44:16;6.40;;;4.90;;
10904;SDS011;5505;51.450;9.254;2022-07-01T04:47:03;5.47;;;4.70;;
10904;SDS011;5505;51.450;9.254;2022-07-01T04:49:51;6.63;;;4.60;;
10904;SDS011;5505;51.450;9.254;2022-07-01T04:52:37;5.03;;;4.50;;
10904;SDS011;5505;51.450;9.254;2022-07-01T04:55:24;4.57;;;4.17;;
10904;SDS011;5505;51.450;9.254;2022-07-01T04:58:12;5.23;;;4.20;;
10904;SDS011;5505;51.450;9.254;2022-07-01T05:01:00;6.10;;;4.47;;
10904;SDS011;5505;51.450;9.254;2022-07-01T05:03:47;4.37;;;3.87;;
10904;SDS011;5505;51.450;9.254;2022-07-01T05:06:34;5.13;;;4.30;;
10904;SDS011;5505;51.450;9.254;2022-07-01T05:09:20;6.20;;;4.30;;
10904;SDS011;5505;51.450;9.254;2022-07-01T05:12:07;4.77;;;4.20;;
10904;SDS011;5505;51.450;9.254;2022-07-01T05:14:55;5.10;;;4.00;;
10904;SDS011;5505;51.450;9.254;2022-07-01T05:17:43;4.07;;;3.70;;
10904;SDS011;5505;51.450;9.254;2022-07-01T05:20:47;4.53;;;4.00;;
10904;SDS011;5505;51.450;9.254;2022-07-01T05:23:51;3.80;;;3.37;;
10904;SDS011;5505;51.450;9.254;2022-07-01T05:26:38;4.17;;;3.87;;
10904;SDS011;5505;51.450;9.254;2022-07-01T05:29:25;4.47;;;3.67;;
10904;SDS011;5505;51.450;9.254;2022-07-01T05:32:12;4.17;;;3.87;;
10904;SDS011;5505;51.450;9.254;2022-07-01T05:35:00;4.70;;;4.20;;
10904;SDS011;5505;51.450;9.254;2022-07-01T05:37:47;4.37;;;3.63;;
10904;SDS011;5505;51.450;9.254;2022-07-01T05:40:34;5.37;;;4.87;;
10904;SDS011;5505;51.450;9.254;2022-07-01T05:43:20;5.07;;;4.67;;
10904;SDS011;5505;51.450;9.254;2022-07-01T05:46:07;5.00;;;4.60;;
10904;SDS011;5505;51.450;9.254;2022-07-01T05:48:55;5.77;;;4.90;;
10904;SDS011;5505;51.450;9.254;2022-07-01T05:51:43;5.07;;;4.60;;
10904;SDS011;5505;51.450;9.254;2022-07-01T05:54:30;4.27;;;3.93;;
10904;SDS011;5505;51.450;9.254;2022-07-01T05:57:17;4.93;;;4.43;;
10904;SDS011;5505;51.450;9.254;2022-07-01T06:00:05;4.70;;;4.30;;
10904;SDS011;5505;51.450;9.254;2022-07-01T06:02:54;4.70;;;4.40;;
10904;SDS011;5505;51.450;9.254;2022-07-01T06:05:41;5.20;;;4.80;;
10904;SDS011;5505;51.450;9.254;2022-07-01T06:08:30;6.17;;;5.60;;
10904;SDS011;5505;51.450;9.254;2022-07-01T06:11:17;5.50;;;5.10;;
10904;SDS011;5505;51.450;9.254;2022-07-01T06:14:03;5.13;;;4.73;;
10904;SDS011;5505;51.450;9.254;2022-07-01T06:16:50;5.00;;;4.50;;
10904;SDS011;5505;51.450;9.254;2022-07-01T06:19:37;4.63;;;4.33;;
10904;SDS011;5505;51.450;9.254;2022-07-01T06:22:24;4.87;;;4.47;;
10904;SDS011;5505;51.450;9.254;2022-07-01T06:25:12;4.43;;;4.13;;
10904;SDS011;5505;51.450;9.254;2022-07-01T06:27:59;5.10;;;4.70;;
10904;SDS011;5505;51.450;9.254;2022-07-01T06:30:46;4.73;;;4.20;;
10904;SDS011;5505;51.450;9.254;2022-07-01T06:33:33;4.50;;;4.13;;
10904;SDS011;5505;51.450;9.254;2022-07-01T06:36:19;5.10;;;4.30;;
10904;SDS011;5505;51.450;9.254;2022-07-01T06:39:06;4.13;;;3.80;;
10904;SDS011;5505;51.450;9.254;2022-07-01T06:41:54;4.23;;;3.93;;
10904;SDS011;5505;51.450;9.254;2022-07-01T06:44:41;4.63;;;3.97;;
10904;SDS011;5505;51.450;9.254;2022-07-01T06:47:28;4.27;;;3.77;;
10904;SDS011;5505;51.450;9.254;2022-07-01T06:50:15;3.93;;;3.53;;
10904;SDS011;5505;51.450;9.254;2022-07-01T06:53:02;3.73;;;3.43;;
10904;SDS011;5505;51.450;9.254;2022-07-01T06:55:49;4.30;;;3.90;;
10904;SDS011;5505;51.450;9.254;2022-07-01T06:58:37;4.40;;;4.00;;
10904;SDS011;5505;51.450;9.254;2022-07-01T07:01:24;4.43;;;3.70;;
10904;SDS011;5505;51.450;9.254;2022-07-01T07:04:11;3.77;;;3.47;;
10904;SDS011;5505;51.450;9.254;2022-07-01T07:06:58;4.10;;;3.73;;
10904;SDS011;5505;51.450;9.254;2022-07-01T07:09:44;3.20;;;3.00;;
10904;SDS011;5505;51.450;9.254;2022-07-01T07:12:31;3.47;;;3.17;;
10904;SDS011;5505;51.450;9.254;2022-07-01T07:15:19;3.70;;;3.33;;
10904;SDS011;5505;51.450;9.254;2022-07-01T07:18:06;4.30;;;3.53;;
10904;SDS011;5505;51.450;9.254;2022-07-01T07:20:53;3.80;;;3.50;;
10904;SDS011;5505;51.450;9.254;2022-07-01T07:23:40;4.03;;;3.60;;
10904;SDS011;5505;51.450;9.254;2022-07-01T07:26:28;4.83;;;3.10;;
10904;SDS011;5505;51.450;9.254;2022-07-01T07:29:14;4.30;;;3.70;;
10904;SDS011;5505;51.450;9.254;2022-07-01T07:32:03;6.73;;;3.60;;
10904;SDS011;5505;51.450;9.254;2022-07-01T07:34:50;3.70;;;3.40;;
10904;SDS011;5505;51.450;9.254;2022-07-01T07:37:37;4.00;;;3.53;;
10904;SDS011;5505;51.450;9.254;2022-07-01T07:40:24;3.90;;;3.60;;
10904;SDS011;5505;51.450;9.254;2022-07-01T07:43:10;3.93;;;3.47;;
10904;SDS011;5505;51.450;9.254;2022-07-01T07:45:58;3.87;;;3.47;;
10904;SDS011;5505;51.450;9.254;2022-07-01T07:48:47;3.93;;;3.60;;
10904;SDS011;5505;51.450;9.254;2022-07-01T07:51:33;3.83;;;3.53;;
10904;SDS011;5505;51.450;9.254;2022-07-01T07:54:20;4.07;;;3.73;;
10904;SDS011;5505;51.450;9.254;2022-07-01T07:57:07;3.97;;;3.50;;
10904;SDS011;5505;51.450;9.254;2022-07-01T07:59:54;3.67;;;3.13;;
10904;SDS011;5505;51.450;9.254;2022-07-01T08:02:41;3.60;;;3.30;;
10904;SDS011;5505;51.450;9.254;2022-07-01T08:05:30;3.67;;;3.20;;
10904;SDS011;5505;51.450;9.254;2022-07-01T08:08:16;3.57;;;2.80;;
10904;SDS011;5505;51.450;9.254;2022-07-01T08:11:03;3.27;;;3.07;;
10904;SDS011;5505;51.450;9.254;2022-07-01T08:13:50;3.27;;;2.90;;
10904;SDS011;5505;51.450;9.254;2022-07-01T08:16:37;3.40;;;3.10;;
10904;SDS011;5505;51.450;9.254;2022-07-01T08:19:24;3.50;;;3.20;;
10904;SDS011;5505;51.450;9.254;2022-07-01T08:22:12;3.20;;;3.00;;
10904;SDS011;5505;51.450;9.254;2022-07-01T08:24:59;3.07;;;2.87;;
10904;SDS011;5505;51.450;9.254;2022-07-01T08:27:47;3.03;;;2.50;;
10904;SDS011;5505;51.450;9.254;2022-07-01T08:30:34;3.60;;;2.70;;
10904;SDS011;5505;51.450;9.254;2022-07-01T08:33:21;4.97;;;2.50;;
10904;SDS011;5505;51.450;9.254;2022-07-01T08:36:08;2.60;;;2.40;;
10904;SDS011;5505;51.450;9.254;2022-07-01T08:38:57;2.43;;;2.23;;
10904;SDS011;5505;51.450;9.254;2022-07-01T08:41:44;2.20;;;2.00;;
10904;SDS011;5505;51.450;9.254;2022-07-01T08:44:31;1.90;;;1.70;;
10904;SDS011;5505;51.450;9.254;2022-07-01T08:47:17;1.83;;;1.73;;
10904;SDS011;5505;51.450;9.254;2022-07-01T08:50:04;2.40;;;1.70;;
10904;SDS011;5505;51.450;9.254;2022-07-01T08:52:52;2.27;;;1.77;;
10904;SDS011;5505;51.450;9.254;2022-07-01T08:55:40;2.70;;;1.50;;
10904;SDS011;5505;51.450;9.254;2022-07-01T08:58:44;1.77;;;1.30;;
10904;SDS011;5505;51.450;9.254;2022-07-01T09:01:31;1.83;;;1.47;;
10904;SDS011;5505;51.450;9.254;2022-07-01T09:04:19;1.70;;;1.13;;
10904;SDS011;5505;51.450;9.254;2022-07-01T09:07:07;1.43;;;1.10;;
10904;SDS011;5505;51.450;9.254;2022-07-01T09:09:56;4.57;;;1.23;;
10904;SDS011;5505;51.450;9.254;2022-07-01T09:13:01;1.80;;;1.33;;
10904;SDS011;5505;51.450;9.254;2022-07-01T09:15:50;1.93;;;1.20;;
10904;SDS011;5505;51.450;9.254;2022-07-01T09:18:37;2.60;;;1.07;;
10904;SDS011;5505;51.450;9.254;2022-07-01T09:21:26;0.83;;;0.80;;
10904;SDS011;5505;51.450;9.254;2022-07-01T09:24:28;1.67;;;1.00;;
10904;SDS011;5505;51.450;9.254;2022-07-01T09:27:16;1.23;;;1.07;;
10904;SDS011;5505;51.450;9.254;2022-07-01T09:30:05;0.87;;;0.87;;
10904;SDS011;5505;51.450;9.254;2022-07-01T09:33:03;1.00;;;0.73;;
10904;SDS011;5505;51.450;9.254;2022-07-01T09:35:51;0.97;;;0.77;;
10904;SDS011;5505;51.450;9.254;2022-07-01T09:38:44;1.67;;;1.00;;
10904;SDS011;5505;51.450;9.254;2022-07-01T09:41:36;0.83;;;0.70;;
10904;SDS011;5505;51.450;9.254;2022-07-01T09:44:23;2.00;;;0.80;;
10904;SDS011;5505;51.450;9.254;2022-07-01T09:47:12;2.13;;;1.00;;
10904;SDS011;5505;51.450;9.254;2022-07-01T09:49:59;1.40;;;1.10;;
10904;SDS011;5505;51.450;9.254;2022-07-01T09:52:48;1.10;;;1.00;;
10904;SDS011;5505;51.450;9.254;2022-07-01T09:55:35;2.27;;;1.10;;
10904;SDS011;5505;51.450;9.254;2022-07-01T09:58:24;1.57;;;0.73;;
10904;SDS011;5505;51.450;9.254;2022-07-01T10:01:13;1.73;;;0.80;;
10904;SDS011;5505;51.450;9.254;2022-07-01T10:04:02;0.97;;;0.90;;
10904;SDS011;5505;51.450;9.254;2022-07-01T10:07:03;1.63;;;1.00;;
10904;SDS011;5505;51.450;9.254;2022-07-01T10:10:08;1.40;;;0.73;;
10904;SDS011;5505;51.450;9.254;2022-07-01T10:13:06;1.23;;;0.80;;
10904;SDS011;5505;51.450;9.254;2022-07-01T10:15:56;1.00;;;0.87;;
10904;SDS011;5505;51.450;9.254;2022-07-01T10:18:44;1.13;;;0.80;;
10904;SDS011;5505;51.450;9.254;2022-07-01T10:21:32;1.23;;;0.83;;
10904;SDS011;5505;51.450;9.254;2022-07-01T10:24:19;2.30;;;0.87;;
10904;SDS011;5505;51.450;9.254;2022-07-01T10:27:09;1.10;;;1.00;;
10904;SDS011;5505;51.450;9.254;2022-07-01T10:30:12;0.80;;;0.80;;
10904;SDS011;5505;51.450;9.254;2022-07-01T10:33:01;1.10;;;1.00;;
10904;SDS011;5505;51.450;9.254;2022-07-01T10:35:48;0.90;;;0.90;;
10904;SDS011;5505;51.450;9.254;2022-07-01T10:38:40;2.87;;;1.03;;
10904;SDS011;5505;51.450;9.254;2022-07-01T10:42:12;1.93;;;1.00;;
10904;SDS011;5505;51.450;9.254;2022-07-01T10:45:02;1.53;;;1.10;;
10904;SDS011;5505;51.450;9.254;2022-07-01T10:48:17;2.23;;;1.13;;
10904;SDS011;5505;51.450;9.254;2022-07-01T10:51:05;3.60;;;1.20;;
10904;SDS011;5505;51.450;9.254;2022-07-01T10:53:53;4.23;;;1.30;;
10904;SDS011;5505;51.450;9.254;2022-07-01T10:56:40;1.77;;;1.30;;
10904;SDS011;5505;51.450;9.254;2022-07-01T10:59:27;2.27;;;1.50;;
10904;SDS011;5505;51.450;9.254;2022-07-01T11:02:15;1.57;;;1.17;;
10904;SDS011;5505;51.450;9.254;2022-07-01T11:05:04;2.40;;;1.10;;
10904;SDS011;5505;51.450;9.254;2022-07-01T11:07:54;1.87;;;1.00;;
10904;SDS011;5505;51.450;9.254;2022-07-01T11:10:43;1.23;;;1.10;;
10904;SDS011;5505;51.450;9.254;2022-07-01T11:13:30;1.10;;;1.00;;
10904;SDS011;5505;51.450;9.254;2022-07-01T11:16:17;2.10;;;1.17;;
10904;SDS011;5505;51.450;9.254;2022-07-01T11:19:05;3.00;;;1.23;;
10904;SDS011;5505;51.450;9.254;2022-07-01T11:21:52;2.20;;;1.10;;
10904;SDS011;5505;51.450;9.254;2022-07-01T11:24:40;1.87;;;1.23;;
10904;SDS011;5505;51.450;9.254;2022-07-01T11:27:28;1.93;;;1.33;;
10904;SDS011;5505;51.450;9.254;2022-07-01T11:30:16;1.70;;;1.00;;
10904;SDS011;5505;51.450;9.254;2022-07-01T11:33:04;2.83;;;1.53;;
10904;SDS011;5505;51.450;9.254;2022-07-01T11:35:51;2.17;;;1.37;;
10904;SDS011;5505;51.450;9.254;2022-07-01T11:38:55;1.67;;;1.50;;
10904;SDS011;5505;51.450;9.254;2022-07-01T11:42:00;2.17;;;1.33;;
10904;SDS011;5505;51.450;9.254;2022-07-01T11:44:50;2.27;;;1.17;;
10904;SDS011;5505;51.450;9.254;2022-07-01T11:47:37;1.20;;;1.10;;
10904;SDS011;5505;51.450;9.254;2022-07-01T11:50:24;2.10;;;1.40;;
10904;SDS011;5505;51.450;9.254;2022-07-01T11:53:11;4.67;;;1.70;;
10904;SDS011;5505;51.450;9.254;2022-07-01T11:55:58;2.80;;;1.80;;
10904;SDS011;5505;51.450;9.254;2022-07-01T11:58:47;2.70;;;1.80;;
10904;SDS011;5505;51.450;9.254;2022-07-01T12:01:37;3.50;;;2.00;;
10904;SDS011;5505;51.450;9.254;2022-07-01T12:04:25;4.47;;;2.27;;
10904;SDS011;5505;51.450;9.254;2022-07-01T12:07:18;2.63;;;2.17;;
10904;SDS011;5505;51.450;9.254;2022-07-01T12:10:07;3.50;;;2.30;;
10904;SDS011;5505;51.450;9.254;2022-07-01T12:12:54;3.67;;;2.17;;
10904;SDS011;5505;51.450;9.254;2022-07-01T12:15:41;2.47;;;2.27;;
10904;SDS011;5505;51.450;9.254;2022-07-01T12:18:29;3.93;;;2.40;;
10904;SDS011;5505;51.450;9.254;2022-07-01T12:21:16;2.00;;;1.90;;
10904;SDS011;5505;51.450;9.254;2022-07-01T12:24:06;2.27;;;2.07;;
10904;SDS011;5505;51.450;9.254;2022-07-01T12:27:01;3.47;;;2.23;;
10904;SDS011;5505;51.450;9.254;2022-07-01T12:29:50;2.70;;;2.07;;
10904;SDS011;5505;51.450;9.254;2022-07-01T12:32:38;2.40;;;2.20;;
10904;SDS011;5505;51.450;9.254;2022-07-01T12:35:28;2.27;;;1.90;;
10904;SDS011;5505;51.450;9.254;2022-07-01T12:38:22;4.30;;;2.27;;
10904;SDS011;5505;51.450;9.254;2022-07-01T12:44:19;2.70;;;2.00;;
10904;SDS011;5505;51.450;9.254;2022-07-01T12:47:17;3.07;;;2.00;;
10904;SDS011;5505;51.450;9.254;2022-07-01T12:50:09;1.87;;;1.73;;
10904;SDS011;5505;51.450;9.254;2022-07-01T12:53:07;2.13;;;2.00;;
10904;SDS011;5505;51.450;9.254;2022-07-01T12:55:55;3.97;;;2.10;;
10904;SDS011;5505;51.450;9.254;2022-07-01T12:58:43;3.97;;;2.03;;
10904;SDS011;5505;51.450;9.254;2022-07-01T13:01:31;2.67;;;1.90;;
10904;SDS011;5505;51.450;9.254;2022-07-01T13:04:25;2.10;;;1.50;;
10904;SDS011;5505;51.450;9.254;2022-07-01T13:07:13;4.37;;;1.90;;
10904;SDS011;5505;51.450;9.254;2022-07-01T13:10:01;1.97;;;1.80;;
10904;SDS011;5505;51.450;9.254;2022-07-01T13:12:49;1.70;;;1.60;;
10904;SDS011;5505;51.450;9.254;2022-07-01T13:15:36;2.27;;;1.90;;
10904;SDS011;5505;51.450;9.254;2022-07-01T13:18:23;1.90;;;1.80;;
10904;SDS011;5505;51.450;9.254;2022-07-01T13:21:10;4.23;;;2.20;;
10904;SDS011;5505;51.450;9.254;2022-07-01T13:23:56;2.10;;;1.90;;
10904;SDS011;5505;51.450;9.254;2022-07-01T13:26:47;4.47;;;2.20;;
10904;SDS011;5505;51.450;9.254;2022-07-01T13:29:34;2.43;;;2.27;;
10904;SDS011;5505;51.450;9.254;2022-07-01T13:32:21;2.03;;;1.93;;
10904;SDS011;5505;51.450;9.254;2022-07-01T13:35:08;2.30;;;2.03;;
10904;SDS011;5505;51.450;9.254;2022-07-01T13:37:56;2.40;;;2.17;;
10904;SDS011;5505;51.450;9.254;2022-07-01T13:40:43;2.40;;;1.80;;
10904;SDS011;5505;51.450;9.254;2022-07-01T13:43:31;2.93;;;2.20;;
10904;SDS011;5505;51.450;9.254;2022-07-01T13:46:18;2.27;;;2.13;;
10904;SDS011;5505;51.450;9.254;2022-07-01T13:49:05;3.27;;;2.40;;
10904;SDS011;5505;51.450;9.254;2022-07-01T13:51:52;2.40;;;2.20;;
10904;SDS011;5505;51.450;9.254;2022-07-01T13:54:39;3.10;;;2.40;;
10904;SDS011;5505;51.450;9.254;2022-07-01T13:57:26;2.53;;;2.17;;
10904;SDS011;5505;51.450;9.254;2022-07-01T14:00:14;3.97;;;2.27;;
10904;SDS011;5505;51.450;9.254;2022-07-01T14:03:01;2.77;;;2.30;;
10904;SDS011;5505;51.450;9.254;2022-07-01T14:05:48;3.50;;;2.60;;
10904;SDS011;5505;51.450;9.254;2022-07-01T14:08:36;2.63;;;2.10;;
10904;SDS011;5505;51.450;9.254;2022-07-01T14:11:23;2.50;;;2.30;;
10904;SDS011;5505;51.450;9.254;2022-07-01T14:14:10;5.30;;;2.37;;
10904;SDS011;5505;51.450;9.254;2022-07-01T14:16:58;2.37;;;2.17;;
10904;SDS011;5505;51.450;9.254;2022-07-01T14:19:45;2.50;;;2.30;;
10904;SDS011;5505;51.450;9.254;2022-07-01T14:22:31;2.33;;;2.13;;
10904;SDS011;5505;51.450;9.254;2022-07-01T14:25:18;2.57;;;2.37;;
10904;SDS011;5505;51.450;9.254;2022-07-01T14:28:08;3.80;;;2.17;;
10904;SDS011;5505;51.450;9.254;2022-07-01T14:30:55;3.97;;;2.30;;
10904;SDS011;5505;51.450;9.254;2022-07-01T14:33:43;2.87;;;2.30;;
10904;SDS011;5505;51.450;9.254;2022-07-01T14:36:31;3.10;;;2.27;;
10904;SDS011;5505;51.450;9.254;2022-07-01T14:39:17;3.43;;;2.20;;
10904;SDS011;5505;51.450;9.254;2022-07-01T14:42:04;2.50;;;2.30;;
10904;SDS011;5505;51.450;9.254;2022-07-01T14:44:52;2.40;;;2.20;;
10904;SDS011;5505;51.450;9.254;2022-07-01T14:47:39;2.90;;;2.40;;
10904;SDS011;5505;51.450;9.254;2022-07-01T14:50:27;2.63;;;2.23;;
10904;SDS011;5505;51.450;9.254;2022-07-01T14:53:14;2.67;;;2.20;;
10904;SDS011;5505;51.450;9.254;2022-07-01T14:56:01;2.20;;;2.00;;
10904;SDS011;5505;51.450;9.254;2022-07-01T14:58:48;3.27;;;2.20;;
10904;SDS011;5505;51.450;9.254;2022-07-01T15:01:35;3.80;;;2.00;;
10904;SDS011;5505;51.450;9.254;2022-07-01T15:04:22;2.97;;;1.90;;
10904;SDS011;5505;51.450;9.254;2022-07-01T15:07:10;3.13;;;1.80;;
10904;SDS011;5505;51.450;9.254;2022-07-01T15:09:57;2.33;;;1.90;;
10904;SDS011;5505;51.450;9.254;2022-07-01T15:12:46;2.27;;;1.67;;
10904;SDS011;5505;51.450;9.254;2022-07-01T15:15:34;3.93;;;1.63;;
10904;SDS011;5505;51.450;9.254;2022-07-01T15:18:21;2.53;;;1.60;;
10904;SDS011;5505;51.450;9.254;2022-07-01T15:21:08;3.20;;;1.60;;
10904;SDS011;5505;51.450;9.254;2022-07-01T15:23:56;3.00;;;1.43;;
10904;SDS011;5505;51.450;9.254;2022-07-01T15:26:43;3.53;;;1.90;;
10904;SDS011;5505;51.450;9.254;2022-07-01T15:29:30;2.13;;;1.43;;
10904;SDS011;5505;51.450;9.254;2022-07-01T15:32:17;3.20;;;1.70;;
10904;SDS011;5505;51.450;9.254;2022-07-01T15:35:04;1.93;;;1.33;;
10904;SDS011;5505;51.450;9.254;2022-07-01T15:37:54;3.27;;;1.77;;
10904;SDS011;5505;51.450;9.254;2022-07-01T15:40:42;2.77;;;1.50;;
10904;SDS011;5505;51.450;9.254;2022-07-01T15:43:29;2.53;;;1.57;;
10904;SDS011;5505;51.450;9.254;2022-07-01T15:46:16;3.47;;;1.63;;
10904;SDS011;5505;51.450;9.254;2022-07-01T15:49:03;1.40;;;1.30;;
10904;SDS011;5505;51.450;9.254;2022-07-01T15:51:51;1.67;;;1.40;;
10904;SDS011;5505;51.450;9.254;2022-07-01T15:54:38;2.63;;;1.40;;
10904;SDS011;5505;51.450;9.254;2022-07-01T15:57:26;3.00;;;1.40;;
10904;SDS011;5505;51.450;9.254;2022-07-01T16:00:13;1.70;;;1.30;;
10904;SDS011;5505;51.450;9.254;2022-07-01T16:03:00;1.37;;;1.13;;
10904;SDS011;5505;51.450;9.254;2022-07-01T16:05:47;1.67;;;1.43;;
10904;SDS011;5505;51.450;9.254;2022-07-01T16:08:36;4.77;;;1.47;;
10904;SDS011;5505;51.450;9.254;2022-07-01T16:11:24;1.40;;;1.30;;
10904;SDS011;5505;51.450;9.254;2022-07-01T16:14:14;3.30;;;1.40;;
10904;SDS011;5505;51.450;9.254;2022-07-01T16:17:06;2.40;;;1.20;;
10904;SDS011;5505;51.450;9.254;2022-07-01T16:19:53;1.60;;;1.20;;
10904;SDS011;5505;51.450;9.254;2022-07-01T16:22:40;1.10;;;0.97;;
10904;SDS011;5505;51.450;9.254;2022-07-01T16:25:29;4.43;;;1.20;;
10904;SDS011;5505;51.450;9.254;2022-07-01T16:28:17;3.90;;;1.20;;
10904;SDS011;5505;51.450;9.254;2022-07-01T16:31:06;1.90;;;1.20;;
10904;SDS011;5505;51.450;9.254;2022-07-01T16:33:53;2.70;;;1.00;;
10904;SDS011;5505;51.450;9.254;2022-07-01T16:36:39;2.73;;;1.00;;
10904;SDS011;5505;51.450;9.254;2022-07-01T16:39:30;2.57;;;0.90;;
10904;SDS011;5505;51.450;9.254;2022-07-01T16:42:17;2.57;;;1.10;;
10904;SDS011;5505;51.450;9.254;2022-07-01T16:45:04;2.00;;;0.90;;
10904;SDS011;5505;51.450;9.254;2022-07-01T16:47:55;0.97;;;0.80;;
10904;SDS011;5505;51.450;9.254;2022-07-01T16:50:45;1.83;;;0.90;;
10904;SDS011;5505;51.450;9.254;2022-07-01T16:53:39;1.93;;;0.80;;
10904;SDS011;5505;51.450;9.254;2022-07-01T16:56:29;1.10;;;0.90;;
10904;SDS011;5505;51.450;9.254;2022-07-01T16:59:16;2.10;;;0.80;;
10904;SDS011;5505;51.450;9.254;2022-07-01T17:02:04;4.33;;;0.87;;
10904;SDS011;5505;51.450;9.254;2022-07-01T17:04:52;1.43;;;1.00;;
10904;SDS011;5505;51.450;9.254;2022-07-01T17:07:39;1.70;;;0.83;;
10904;SDS011;5505;51.450;9.254;2022-07-01T17:10:28;2.57;;;1.10;;
10904;SDS011;5505;51.450;9.254;2022-07-01T17:13:18;1.90;;;1.10;;